createdAt,value
2023-02-22T00:01:02.959Z,94154.16
2023-02-22T00:03:35.034Z,94151.28
2023-02-22T00:06:05.604Z,94155.13
2023-02-22T00:08:35.065Z,94155.63
2023-02-22T00:11:04.455Z,94146.16
2023-02-22T00:13:31.202Z,94148.03
2023-02-22T00:15:59.095Z,94142.22
2023-02-22T00:18:29.588Z,94140.31
2023-02-22T00:21:01.137Z,94145.31
2023-02-22T00:23:29.941Z,94142.78
2023-02-22T00:25:58.449Z,94135.09
2023-02-22T00:28:25.631Z,94141.78
2023-02-22T00:30:54.834Z,94139.31
2023-02-22T00:33:22.746Z,94137.25
2023-02-22T00:35:49.720Z,94137.94
2023-02-22T00:38:18.609Z,94136.31
2023-02-22T00:40:45.578Z,94129.13
2023-02-22T00:43:12.876Z,94144.56
2023-02-22T00:45:41.290Z,94141.53
2023-02-22T00:48:09.268Z,94130.03
2023-02-22T00:50:36.535Z,94135.34
2023-02-22T00:53:05.116Z,94135.72
2023-02-22T00:55:35.190Z,94136.22
2023-02-22T00:58:02.390Z,94132.59
2023-02-22T01:00:41.704Z,94136.34
2023-02-22T01:03:11.021Z,94134.75
2023-02-22T01:05:40.773Z,94122.94
2023-02-22T01:08:09.770Z,94119.31
2023-02-22T01:10:38.053Z,94130.63
2023-02-22T01:13:09.002Z,94113.78
2023-02-22T01:15:37.842Z,94113.28
2023-02-22T01:18:05.607Z,94122.84
2023-02-22T01:20:32.745Z,94126.56
2023-02-22T01:23:00.973Z,94123.75
2023-02-22T01:25:30.711Z,94120.78
2023-02-22T01:27:59.533Z,94118.72
2023-02-22T01:30:30.488Z,94122.34
2023-02-22T01:32:57.259Z,94118.59
2023-02-22T01:35:27.992Z,94119.59
2023-02-22T01:37:55.804Z,94118.50
2023-02-22T01:40:26.181Z,94119.69
2023-02-22T01:42:55.604Z,94123.03
2023-02-22T01:45:31.360Z,94126.50
2023-02-22T01:48:09.212Z,94115.66
2023-02-22T01:50:43.600Z,94119.41
2023-02-22T01:53:16.275Z,94119.59
2023-02-22T01:55:44.522Z,94109.06
2023-02-22T01:58:12.270Z,94103.97
2023-02-22T02:00:40.093Z,94116.88
2023-02-22T02:03:11.835Z,94112.44
2023-02-22T02:05:39.097Z,94108.69
2023-02-22T02:08:16.865Z,94103.78
2023-02-22T02:10:44.327Z,94086.19
2023-02-22T02:13:11.295Z,94098.34
2023-02-22T02:15:38.140Z,94095.69
2023-02-22T02:18:09.117Z,94098.19
2023-02-22T02:20:40.755Z,94093.38
2023-02-22T02:23:29.079Z,94096.09
2023-02-22T02:26:14.571Z,94091.78
2023-02-22T02:29:00.125Z,94085.19
2023-02-22T02:31:50.973Z,94081.81
2023-02-22T02:34:21.918Z,94082.41
2023-02-22T02:37:06.466Z,94073.00
2023-02-22T02:39:44.538Z,94081.25
2023-02-22T02:42:15.611Z,94068.66
2023-02-22T02:44:49.803Z,94070.22
2023-02-22T02:47:26.945Z,94062.66
2023-02-22T02:50:13.695Z,94064.84
2023-02-22T02:52:41.593Z,94054.81
2023-02-22T02:55:11.331Z,94057.34
2023-02-22T02:57:41.476Z,94058.53
2023-02-22T03:00:24.230Z,94047.91
2023-02-22T03:03:02.742Z,94055.78
2023-02-22T03:05:39.343Z,94046.84
2023-02-22T03:08:25.491Z,94040.75
2023-02-22T03:11:01.739Z,94046.34
2023-02-22T03:14:11.766Z,94045.06
2023-02-22T03:17:00.585Z,94043.44
2023-02-22T03:19:35.503Z,94037.06
2023-02-22T03:22:20.709Z,94036.00
2023-02-22T03:24:55.709Z,94034.91
2023-02-22T03:27:32.112Z,94019.91
2023-02-22T03:30:05.461Z,94015.50
2023-02-22T03:32:37.617Z,94017.66
2023-02-22T03:35:28.389Z,94018.19
2023-02-22T03:38:00.447Z,94011.16
2023-02-22T03:40:35.135Z,94000.63
2023-02-22T03:43:10.224Z,94023.19
2023-02-22T03:45:43.550Z,94008.91
2023-02-22T03:48:19.564Z,94019.75
2023-02-22T03:50:49.163Z,94016.13
2023-02-22T03:53:18.580Z,94017.66
2023-02-22T03:55:51.711Z,94023.72
2023-02-22T03:58:22.994Z,94013.44
2023-02-22T04:00:53.136Z,94010.97
2023-02-22T04:03:21.600Z,94013.28
2023-02-22T04:05:49.123Z,94017.31
2023-02-22T04:08:16.622Z,94018.38
2023-02-22T04:10:43.480Z,94029.00
2023-02-22T04:13:10.738Z,94017.19
2023-02-22T04:15:41.204Z,94017.25
2023-02-22T04:18:11.426Z,94020.59
2023-02-22T04:20:38.176Z,94011.25
2023-02-22T04:23:09.945Z,94023.50
2023-02-22T04:25:39.258Z,94025.84
2023-02-22T04:28:11.156Z,94019.88
2023-02-22T04:30:55.505Z,94020.47
2023-02-22T04:33:23.392Z,94023.03
2023-02-22T04:35:51.723Z,94021.47
2023-02-22T04:38:18.543Z,94011.44
2023-02-22T04:40:45.467Z,94022.84
2023-02-22T04:43:12.186Z,94014.53
2023-02-22T04:45:39.986Z,94010.53
2023-02-22T04:48:07.940Z,94008.25
2023-02-22T04:50:35.464Z,94000.28
2023-02-22T04:53:03.918Z,94007.22
2023-02-22T04:55:30.706Z,94004.56
2023-02-22T04:57:57.703Z,93997.53
2023-02-22T05:00:24.598Z,94006.97
2023-02-22T05:02:56.051Z,94009.28
2023-02-22T05:05:23.087Z,94003.16
2023-02-22T05:07:50.384Z,94001.22
2023-02-22T05:10:17.425Z,93997.00
2023-02-22T05:12:44.233Z,94001.22
2023-02-22T05:15:15.399Z,93992.97
2023-02-22T05:17:42.090Z,93997.38
2023-02-22T05:20:19.748Z,93990.78
2023-02-22T05:22:46.495Z,93993.88
2023-02-22T05:25:13.214Z,93992.59
2023-02-22T05:27:39.949Z,93989.44
2023-02-22T05:30:09.298Z,93994.84
2023-02-22T05:32:35.986Z,93996.19
2023-02-22T05:35:02.947Z,93990.59
2023-02-22T05:37:29.595Z,93983.72
2023-02-22T05:39:56.268Z,93987.94
2023-02-22T05:42:23.518Z,93979.59
2023-02-22T05:44:50.186Z,93983.59
2023-02-22T05:47:16.848Z,93976.06
2023-02-22T05:49:43.511Z,93974.19
2023-02-22T05:52:10.193Z,93971.34
2023-02-22T05:54:36.883Z,93965.53
2023-02-22T05:57:03.690Z,93968.19
2023-02-22T05:59:30.361Z,93977.44
2023-02-22T06:01:57.093Z,93964.84
2023-02-22T06:04:23.998Z,93970.34
2023-02-22T06:06:50.673Z,93966.91
2023-02-22T06:09:17.375Z,93975.16
2023-02-22T06:11:44.029Z,93974.16
2023-02-22T06:14:10.657Z,93972.00
2023-02-22T06:16:37.353Z,93963.47
2023-02-22T06:19:04.068Z,93968.59
2023-02-22T06:21:30.854Z,93968.09
2023-02-22T06:23:57.496Z,93969.97
2023-02-22T06:26:24.156Z,93962.50
2023-02-22T06:28:50.814Z,93965.03
2023-02-22T06:31:17.819Z,93971.03
2023-02-22T06:33:44.788Z,93974.47
2023-02-22T06:36:11.578Z,93970.94
2023-02-22T06:38:38.405Z,93963.56
2023-02-22T06:41:05.268Z,93976.75
2023-02-22T06:43:31.912Z,93970.78
2023-02-22T06:45:58.599Z,93970.56
2023-02-22T06:48:25.368Z,93977.13
2023-02-22T06:50:52.066Z,93979.97
2023-02-22T06:53:18.713Z,93977.53
2023-02-22T06:55:45.345Z,93986.00
2023-02-22T06:58:12.035Z,93992.50
2023-02-22T07:00:38.780Z,93995.66
2023-02-22T07:03:05.509Z,93990.28
2023-02-22T07:05:32.345Z,93995.81
2023-02-22T07:08:07.424Z,93993.03
2023-02-22T07:10:36.201Z,93992.09
2023-02-22T07:13:04.726Z,93989.94
2023-02-22T07:15:33.051Z,93999.69
2023-02-22T07:18:00.471Z,93997.19
2023-02-22T07:20:29.461Z,93997.22
2023-02-22T07:22:56.103Z,93994.69
2023-02-22T07:25:23.895Z,93998.94
2023-02-22T07:27:52.587Z,94006.63
2023-02-22T07:30:25.284Z,94000.97
2023-02-22T07:32:54.171Z,94002.38
2023-02-22T07:35:29.965Z,94000.81
2023-02-22T07:37:56.884Z,94002.06
2023-02-22T07:40:25.564Z,94004.72
2023-02-22T07:43:04.317Z,93994.22
2023-02-22T07:45:34.327Z,93991.66
2023-02-22T07:48:02.734Z,93997.47
2023-02-22T07:50:31.378Z,93996.06
2023-02-22T07:53:00.016Z,93994.19
2023-02-22T07:55:29.032Z,93993.72
2023-02-22T07:57:58.878Z,93991.94
2023-02-22T08:00:27.721Z,93993.91
2023-02-22T08:02:55.288Z,93990.28
2023-02-22T08:05:24.476Z,93990.59
2023-02-22T08:07:51.418Z,93995.72
2023-02-22T08:10:20.244Z,93979.69
2023-02-22T08:12:46.949Z,93985.56
2023-02-22T08:15:28.723Z,93988.78
2023-02-22T08:17:56.735Z,93985.38
2023-02-22T08:20:24.501Z,93983.84
2023-02-22T08:22:52.053Z,93983.31
2023-02-22T08:25:20.932Z,93977.56
2023-02-22T08:27:48.341Z,93979.28
2023-02-22T08:30:18.349Z,93978.63
2023-02-22T08:32:49.975Z,93969.34
2023-02-22T08:35:18.736Z,93983.66
2023-02-22T08:37:54.398Z,93986.03
2023-02-22T08:40:23.437Z,93979.91
2023-02-22T08:42:50.280Z,93982.53
2023-02-22T08:45:17.276Z,93986.13
2023-02-22T08:47:44.119Z,93984.38
2023-02-22T08:50:17.626Z,93984.19
2023-02-22T08:52:44.468Z,93976.84
2023-02-22T08:55:11.166Z,93978.25
2023-02-22T08:57:37.876Z,93964.41
2023-02-22T09:00:05.893Z,93968.28
2023-02-22T09:02:32.586Z,93973.03
2023-02-22T09:04:59.263Z,93970.66
2023-02-22T09:07:25.946Z,93958.06
2023-02-22T09:09:52.601Z,93959.56
2023-02-22T09:12:19.226Z,93966.09
2023-02-22T09:14:45.930Z,93959.53
2023-02-22T09:17:12.656Z,93959.59
2023-02-22T09:19:39.368Z,93957.72
2023-02-22T09:22:06.057Z,93953.28
2023-02-22T09:24:32.744Z,93955.81
2023-02-22T09:26:59.944Z,93957.78
2023-02-22T09:29:27.775Z,93948.38
2023-02-22T09:31:55.789Z,93951.06
2023-02-22T09:34:29.606Z,93955.78
2023-02-22T09:36:58.090Z,93951.28
2023-02-22T09:39:25.357Z,93952.69
2023-02-22T09:42:15.028Z,93955.19
2023-02-22T09:44:44.731Z,93950.19
2023-02-22T09:47:18.354Z,93948.06
2023-02-22T09:49:58.723Z,93940.56
2023-02-22T09:52:32.410Z,93932.41
2023-02-22T09:55:19.696Z,93940.38
2023-02-22T09:57:47.623Z,93933.00
2023-02-22T10:00:20.176Z,93939.47
2023-02-22T10:03:12.926Z,93942.41
2023-02-22T10:05:42.921Z,93939.13
2023-02-22T10:08:15.448Z,93936.00
2023-02-22T10:10:47.015Z,93935.88
2023-02-22T10:13:32.353Z,93927.72
2023-02-22T10:15:58.944Z,93931.63
2023-02-22T10:18:55.150Z,93930.84
2023-02-22T10:21:33.738Z,93936.31
2023-02-22T10:24:18.989Z,93935.03
2023-02-22T10:26:46.965Z,93925.72
2023-02-22T10:29:22.447Z,93930.44
2023-02-22T10:31:56.807Z,93928.94
2023-02-22T10:34:30.840Z,93930.16
2023-02-22T10:37:19.021Z,93929.72
2023-02-22T10:39:48.045Z,93917.75
2023-02-22T10:42:15.812Z,93917.16
2023-02-22T10:44:42.571Z,93906.81
2023-02-22T10:47:12.483Z,93908.47
2023-02-22T10:49:46.906Z,93909.59
2023-02-22T10:52:27.879Z,93919.56
2023-02-22T10:55:13.537Z,93915.75
2023-02-22T10:57:44.353Z,93916.84
2023-02-22T11:00:29.695Z,93913.41
2023-02-22T11:02:59.944Z,93908.97
2023-02-22T11:05:38.480Z,93915.34
2023-02-22T11:08:23.783Z,93915.19
2023-02-22T11:11:01.209Z,93908.91
2023-02-22T11:13:38.917Z,93902.94
2023-02-22T11:16:21.234Z,93899.75
2023-02-22T11:18:47.971Z,93904.78
2023-02-22T11:21:22.797Z,93895.84
2023-02-22T11:23:50.491Z,93906.91
2023-02-22T11:26:20.730Z,93907.25
2023-02-22T11:28:56.214Z,93896.22
2023-02-22T11:31:27.404Z,93894.00
2023-02-22T11:34:00.198Z,93880.97
2023-02-22T11:36:31.382Z,93893.50
2023-02-22T11:39:00.820Z,93867.16
2023-02-22T11:41:32.282Z,93873.44
2023-02-22T11:44:23.923Z,93868.25
2023-02-22T11:46:52.046Z,93875.13
2023-02-22T11:49:20.103Z,93864.06
2023-02-22T11:52:06.781Z,93864.41
2023-02-22T11:54:58.563Z,93860.66
2023-02-22T11:57:51.161Z,93847.28
2023-02-22T12:00:43.527Z,93856.91
2023-02-22T12:03:28.634Z,93857.63
2023-02-22T12:06:20.295Z,93850.63
2023-02-22T12:08:46.945Z,93852.03
2023-02-22T12:11:26.468Z,93842.38
2023-02-22T12:14:37.933Z,93848.84
2023-02-22T12:17:59.315Z,93845.19
2023-02-22T12:20:45.574Z,93841.41
2023-02-22T12:23:12.959Z,93850.00
2023-02-22T12:25:48.631Z,93840.63
2023-02-22T12:28:25.410Z,93838.69
2023-02-22T12:31:23.613Z,93844.81
2023-02-22T12:34:11.866Z,93843.22
2023-02-22T12:36:47.028Z,93836.25
2023-02-22T12:39:22.900Z,93830.94
2023-02-22T12:41:52.917Z,93826.38
2023-02-22T12:44:30.444Z,93828.06
2023-02-22T12:47:00.079Z,93822.09
2023-02-22T12:49:52.088Z,93817.97
2023-02-22T12:52:44.250Z,93821.31
2023-02-22T12:55:20.416Z,93815.09
2023-02-22T12:58:21.817Z,93819.25
2023-02-22T13:01:05.162Z,93809.66
2023-02-22T13:03:39.962Z,93810.88
2023-02-22T13:06:09.609Z,93813.22
2023-02-22T13:08:49.817Z,93807.75
2023-02-22T13:11:41.659Z,93808.84
2023-02-22T13:14:30.184Z,93807.44
2023-02-22T13:17:10.099Z,93797.47
2023-02-22T13:19:40.294Z,93797.38
2023-02-22T13:22:13.200Z,93802.34
2023-02-22T13:25:15.113Z,93799.00
2023-02-22T13:27:55.337Z,93786.06
2023-02-22T13:30:37.834Z,93786.13
2023-02-22T13:33:28.997Z,93798.22
2023-02-22T13:36:31.150Z,93794.31
2023-02-22T13:39:12.811Z,93791.63
2023-02-22T13:41:48.504Z,93790.13
2023-02-22T13:44:47.780Z,93791.69
2023-02-22T13:47:26.783Z,93795.09
2023-02-22T13:50:08.413Z,93780.06
2023-02-22T13:52:40.071Z,93788.06
2023-02-22T13:55:20.561Z,93771.34
2023-02-22T13:57:50.901Z,93789.56
2023-02-22T14:00:23.623Z,93793.03
2023-02-22T14:03:01.464Z,93778.63
2023-02-22T14:05:44.868Z,93778.09
2023-02-22T14:08:17.764Z,93779.00
2023-02-22T14:10:45.527Z,93784.13
2023-02-22T14:13:13.886Z,93773.41
2023-02-22T14:16:02.661Z,93789.34
2023-02-22T14:18:43.298Z,93781.97
2023-02-22T14:21:20.575Z,93784.31
2023-02-22T14:23:51.786Z,93784.56
2023-02-22T14:26:32.605Z,93795.00
2023-02-22T14:29:02.833Z,93791.16
2023-02-22T14:31:54.622Z,93795.75
2023-02-22T14:34:58.119Z,93798.81
2023-02-22T14:37:26.410Z,93796.03
2023-02-22T14:40:18.432Z,93794.53
2023-02-22T14:42:51.026Z,93785.09
2023-02-22T14:45:29.882Z,93791.59
2023-02-22T14:48:24.961Z,93791.84
2023-02-22T14:51:05.911Z,93782.41
2023-02-22T14:53:49.690Z,93784.25
2023-02-22T14:56:25.825Z,93786.13
2023-02-22T14:58:52.438Z,93792.34
2023-02-22T15:01:21.986Z,93796.13
2023-02-22T15:03:56.029Z,93793.78
2023-02-22T15:06:31.510Z,93792.34
2023-02-22T15:09:29.786Z,93798.75
2023-02-22T15:12:04.088Z,93793.63
2023-02-22T15:14:37.709Z,93792.50
2023-02-22T15:17:09.374Z,93776.06
2023-02-22T15:19:41.725Z,93799.72
2023-02-22T15:22:23.066Z,93792.00
2023-02-22T15:25:01.599Z,93789.75
2023-02-22T15:27:29.260Z,93788.88
2023-02-22T15:30:05.868Z,93804.22
2023-02-22T15:32:49.969Z,93785.16
2023-02-22T15:35:28.090Z,93794.09
2023-02-22T15:38:01.866Z,93796.50
2023-02-22T15:40:35.021Z,93789.41
2023-02-22T15:43:04.829Z,93795.56
2023-02-22T15:45:34.475Z,93793.66
2023-02-22T15:48:01.835Z,93795.31
2023-02-22T15:50:34.551Z,93799.03
2023-02-22T15:53:02.681Z,93795.13
2023-02-22T15:55:33.717Z,93797.03
2023-02-22T15:58:08.341Z,93785.78
2023-02-22T16:00:38.151Z,93799.31
2023-02-22T16:03:19.610Z,93778.16
2023-02-22T16:05:50.704Z,93789.16
2023-02-22T16:08:20.508Z,93799.13
2023-02-22T16:11:01.343Z,93804.50
2023-02-22T16:13:33.058Z,93794.53
2023-02-22T16:16:05.927Z,93804.41
2023-02-22T16:18:36.244Z,93802.00
2023-02-22T16:21:11.952Z,93805.03
2023-02-22T16:23:49.202Z,93797.31
2023-02-22T16:26:36.266Z,93796.38
2023-02-22T16:29:07.813Z,93786.56
2023-02-22T16:31:39.818Z,93799.91
2023-02-22T16:34:08.092Z,93800.69
2023-02-22T16:36:43.965Z,93803.78
2023-02-22T16:39:24.350Z,93792.94
2023-02-22T16:41:52.044Z,93796.88
2023-02-22T16:44:18.866Z,93797.00
2023-02-22T16:46:45.562Z,93799.28
2023-02-22T16:49:13.764Z,93796.28
2023-02-22T16:51:47.485Z,93790.94
2023-02-22T16:54:23.148Z,93793.84
2023-02-22T16:56:49.857Z,93796.66
2023-02-22T16:59:17.247Z,93800.91
2023-02-22T17:01:44.205Z,93796.56
2023-02-22T17:04:21.060Z,93806.28
2023-02-22T17:06:48.301Z,93802.25
2023-02-22T17:09:15.651Z,93812.19
2023-02-22T17:11:43.403Z,93812.91
2023-02-22T17:14:12.540Z,93810.00
2023-02-22T17:16:39.211Z,93810.34
2023-02-22T17:19:15.424Z,93805.22
2023-02-22T17:21:42.142Z,93811.25
2023-02-22T17:24:12.656Z,93815.47
2023-02-22T17:26:39.404Z,93815.28
2023-02-22T17:29:06.208Z,93824.63
2023-02-22T17:31:33.081Z,93826.88
2023-02-22T17:34:04.907Z,93831.56
2023-02-22T17:36:33.659Z,93827.31
2023-02-22T17:39:00.885Z,93834.03
2023-02-22T17:41:27.699Z,93828.69
2023-02-22T17:43:54.492Z,93834.38
2023-02-22T17:46:21.312Z,93817.75
2023-02-22T17:48:54.117Z,93835.81
2023-02-22T17:51:23.648Z,93836.16
2023-02-22T17:53:50.518Z,93839.06
2023-02-22T17:56:19.069Z,93835.03
2023-02-22T17:58:53.266Z,93843.41
2023-02-22T18:01:24.950Z,93850.34
2023-02-22T18:03:55.604Z,93835.38
2023-02-22T18:06:27.187Z,93842.06
2023-02-22T18:08:56.682Z,93846.09
2023-02-22T18:11:26.627Z,93848.19
2023-02-22T18:13:55.356Z,93853.44
2023-02-22T18:16:23.563Z,93850.63
2023-02-22T18:18:50.282Z,93840.25
2023-02-22T18:21:17.129Z,93842.47
2023-02-22T18:23:47.121Z,93838.47
2023-02-22T18:26:19.720Z,93858.09
2023-02-22T18:28:48.773Z,93856.09
2023-02-22T18:31:18.160Z,93843.25
2023-02-22T18:33:47.074Z,93853.50
2023-02-22T18:36:15.622Z,93852.72
2023-02-22T18:38:43.674Z,93848.25
2023-02-22T18:41:15.564Z,93852.72
2023-02-22T18:43:42.874Z,93840.19
2023-02-22T18:46:16.302Z,93849.13
2023-02-22T18:48:43.952Z,93849.13
2023-02-22T18:51:13.857Z,93849.00
2023-02-22T18:53:46.938Z,93851.69
2023-02-22T18:56:17.926Z,93847.44
2023-02-22T18:58:45.147Z,93847.19
2023-02-22T19:01:17.515Z,93854.09
2023-02-22T19:03:47.184Z,93856.22
2023-02-22T19:06:16.169Z,93853.09
2023-02-22T19:08:44.097Z,93847.06
2023-02-22T19:11:19.135Z,93852.41
2023-02-22T19:13:51.824Z,93835.88
2023-02-22T19:16:20.886Z,93848.25
2023-02-22T19:18:49.828Z,93855.06
2023-02-22T19:21:16.827Z,93841.75
2023-02-22T19:23:48.018Z,93847.00
2023-02-22T19:26:20.357Z,93851.56
2023-02-22T19:28:48.164Z,93863.03
2023-02-22T19:31:19.819Z,93858.34
2023-02-22T19:33:51.243Z,93862.31
2023-02-22T19:36:19.937Z,93861.56
2023-02-22T19:38:46.946Z,93860.78
2023-02-22T19:41:19.538Z,93861.19
2023-02-22T19:43:48.626Z,93856.03
2023-02-22T19:46:19.126Z,93867.34
2023-02-22T19:48:45.982Z,93856.47
2023-02-22T19:51:14.642Z,93851.63
2023-02-22T19:53:43.104Z,93857.28
2023-02-22T19:56:16.307Z,93862.22
2023-02-22T19:58:45.062Z,93868.50
2023-02-22T20:01:18.900Z,93864.59
2023-02-22T20:03:46.216Z,93853.94
2023-02-22T20:06:16.628Z,93859.28
2023-02-22T20:08:43.301Z,93867.16
2023-02-22T20:11:11.029Z,93869.38
2023-02-22T20:13:38.851Z,93865.78
2023-02-22T20:16:05.991Z,93883.50
2023-02-22T20:18:32.837Z,93870.50
2023-02-22T20:20:59.724Z,93865.94
2023-02-22T20:23:26.414Z,93866.69
2023-02-22T20:25:57.183Z,93869.72
2023-02-22T20:28:24.321Z,93873.59
2023-02-22T20:30:51.798Z,93878.81
2023-02-22T20:33:21.869Z,93877.91
2023-02-22T20:35:48.651Z,93875.69
2023-02-22T20:38:15.355Z,93879.28
2023-02-22T20:40:42.660Z,93877.06
2023-02-22T20:43:10.177Z,93870.34
2023-02-22T20:45:38.068Z,93868.66
2023-02-22T20:48:05.734Z,93875.84
2023-02-22T20:50:34.683Z,93877.38
2023-02-22T20:53:01.287Z,93872.03
2023-02-22T20:55:28.001Z,93869.81
2023-02-22T20:57:54.692Z,93872.50
2023-02-22T21:00:21.432Z,93860.59
2023-02-22T21:02:48.200Z,93854.00
2023-02-22T21:05:14.849Z,93870.75
2023-02-22T21:07:41.608Z,93870.28
2023-02-22T21:10:08.556Z,93866.53
2023-02-22T21:12:35.464Z,93865.59
2023-02-22T21:15:02.298Z,93865.28
2023-02-22T21:17:29.065Z,93852.91
2023-02-22T21:19:59.153Z,93858.38
2023-02-22T21:22:25.819Z,93869.81
2023-02-22T21:24:53.267Z,93870.28
2023-02-22T21:27:20.000Z,93860.31
2023-02-22T21:29:46.857Z,93876.72
2023-02-22T21:32:13.928Z,93881.28
2023-02-22T21:34:40.932Z,93872.69
2023-02-22T21:37:08.394Z,93872.69
2023-02-22T21:39:35.545Z,93864.41
2023-02-22T21:42:02.778Z,93864.09
2023-02-22T21:44:29.846Z,93874.13
2023-02-22T21:46:56.680Z,93854.75
2023-02-22T21:49:23.653Z,93870.88
2023-02-22T21:51:51.770Z,93863.09
2023-02-22T21:54:18.876Z,93852.91
2023-02-22T21:56:45.722Z,93876.44
2023-02-22T21:59:15.649Z,93856.03
2023-02-22T22:01:50.639Z,93868.28
2023-02-22T22:04:19.750Z,93856.72
2023-02-22T22:06:54.401Z,93869.13
2023-02-22T22:09:23.553Z,93878.34
2023-02-22T22:12:05.759Z,93870.34
2023-02-22T22:14:34.123Z,93863.16
2023-02-22T22:17:01.185Z,93860.97
2023-02-22T22:19:30.127Z,93863.16
2023-02-22T22:21:58.366Z,93867.88
2023-02-22T22:24:26.008Z,93847.97
2023-02-22T22:26:56.050Z,93859.25
2023-02-22T22:29:24.630Z,93854.69
2023-02-22T22:31:52.031Z,93850.78
2023-02-22T22:34:19.586Z,93865.97
2023-02-22T22:36:46.519Z,93864.88
2023-02-22T22:39:13.267Z,93864.72
2023-02-22T22:41:41.582Z,93866.16
2023-02-22T22:44:09.911Z,93866.31
2023-02-22T22:46:41.114Z,93867.41
2023-02-22T22:49:10.376Z,93869.28
2023-02-22T22:51:38.116Z,93870.38
2023-02-22T22:54:09.524Z,93858.47
2023-02-22T22:56:38.128Z,93870.25
2023-02-22T22:59:08.107Z,93872.13
2023-02-22T23:01:40.745Z,93869.91
2023-02-22T23:04:10.341Z,93873.69
2023-02-22T23:06:40.140Z,93867.72
2023-02-22T23:09:11.901Z,93875.09
2023-02-22T23:11:44.736Z,93868.19
2023-02-22T23:14:26.065Z,93871.66
2023-02-22T23:17:00.018Z,93868.38
2023-02-22T23:19:27.001Z,93881.53
2023-02-22T23:21:53.651Z,93875.09
2023-02-22T23:24:21.268Z,93878.72
2023-02-22T23:26:51.432Z,93866.78
2023-02-22T23:29:21.595Z,93869.13
2023-02-22T23:31:49.847Z,93876.19
2023-02-22T23:34:18.834Z,93871.94
2023-02-22T23:36:45.701Z,93876.03
2023-02-22T23:39:14.254Z,93875.88
2023-02-22T23:41:42.508Z,93872.59
2023-02-22T23:44:13.350Z,93881.69
2023-02-22T23:46:41.228Z,93874.81
2023-02-22T23:49:10.030Z,93877.16
2023-02-22T23:51:42.945Z,93880.59
2023-02-22T23:54:12.653Z,93873.56
2023-02-22T23:56:40.506Z,93878.44
2023-02-22T23:59:12.620Z,93873.13
